createdAt,value
2019-04-25T00:00:56.276Z,10.8
2019-04-25T00:03:53.333Z,10.8
2019-04-25T00:06:47.243Z,10.7
2019-04-25T00:09:44.018Z,10.7
2019-04-25T00:12:38.261Z,10.7
2019-04-25T00:15:32.400Z,10.6
2019-04-25T00:18:27.641Z,10.5
2019-04-25T00:21:22.859Z,10.4
2019-04-25T00:24:18.047Z,10.4
2019-04-25T00:27:13.307Z,10.4
2019-04-25T00:30:08.451Z,10.4
2019-04-25T00:33:03.643Z,10.3
2019-04-25T00:35:58.834Z,10.2
2019-04-25T00:38:54.034Z,10.2
2019-04-25T00:41:49.729Z,10.1
2019-04-25T00:44:46.171Z,10.1
2019-04-25T00:47:39.651Z,10.1
2019-04-25T00:50:34.839Z,10.1
2019-04-25T00:53:30.040Z,10
2019-04-25T00:56:25.227Z,9.9
2019-04-25T00:59:22.515Z,9.8
2019-04-25T01:02:15.596Z,9.6
2019-04-25T01:05:12.017Z,9.7
2019-04-25T01:08:05.914Z,9.7
2019-04-25T01:11:02.152Z,9.8
2019-04-25T01:13:56.226Z,9.9
2019-04-25T01:16:53.892Z,9.9
2019-04-25T01:19:47.181Z,9.9
2019-04-25T01:22:41.712Z,9.9
2019-04-25T01:25:44.648Z,9.8
2019-04-25T01:28:31.978Z,9.7
2019-04-25T01:31:27.154Z,9.7
2019-04-25T01:34:22.202Z,9.6
2019-04-25T01:37:17.442Z,9.7
2019-04-25T01:40:14.420Z,9.7
2019-04-25T01:43:07.726Z,9.7
2019-04-25T01:46:03.834Z,9.7
2019-04-25T01:48:59.040Z,9.6
2019-04-25T01:51:57.353Z,9.6
2019-04-25T01:54:50.523Z,9.7
2019-04-25T01:57:45.512Z,9.5
2019-04-25T02:00:38.476Z,9.5
2019-04-25T02:03:35.878Z,9.4
2019-04-25T02:06:28.746Z,9.4
2019-04-25T02:09:25.324Z,9.4
2019-04-25T02:12:20.702Z,9.3
2019-04-25T02:15:14.227Z,9.2
2019-04-25T02:18:09.287Z,9.3
2019-04-25T02:21:04.934Z,9.3
2019-04-25T02:24:00.558Z,9.3
2019-04-25T02:26:57.211Z,9.3
2019-04-25T02:29:49.743Z,9.2
2019-04-25T02:32:44.874Z,9.2
2019-04-25T02:35:46.818Z,9
2019-04-25T02:38:35.076Z,8.9
2019-04-25T02:41:30.188Z,8.9
2019-04-25T02:44:25.289Z,8.8
2019-04-25T02:47:20.365Z,8.9
2019-04-25T02:50:15.599Z,9
2019-04-25T02:53:10.496Z,9
2019-04-25T02:56:31.045Z,8.9
2019-04-25T02:59:00.744Z,8.9
2019-04-25T03:01:58.970Z,8.9
2019-04-25T03:04:50.844Z,8.9
2019-04-25T03:07:45.997Z,8.9
2019-04-25T03:10:40.994Z,8.9
2019-04-25T03:13:36.102Z,9
2019-04-25T03:16:31.172Z,9
2019-04-25T03:19:26.773Z,9
2019-04-25T03:22:21.299Z,8.9
2019-04-25T03:25:18.102Z,8.9
2019-04-25T03:28:11.415Z,8.8
2019-04-25T03:31:20.998Z,8.9
2019-04-25T03:34:11.822Z,8.9
2019-04-25T03:36:56.600Z,9
2019-04-25T03:39:51.659Z,9.1
2019-04-25T03:42:46.758Z,9.2
2019-04-25T03:45:43.159Z,9.1
2019-04-25T03:48:37.468Z,9.1
2019-04-25T03:51:31.897Z,9.1
2019-04-25T03:54:26.949Z,9.2
2019-04-25T03:57:23.635Z,9.3
2019-04-25T04:00:17.113Z,9.4
2019-04-25T04:03:14.094Z,9.5
2019-04-25T04:06:09.628Z,9.6
2019-04-25T04:09:05.482Z,9.5
2019-04-25T04:11:57.443Z,9.6
2019-04-25T04:14:54.155Z,9.4
2019-04-25T04:17:47.633Z,9.4
2019-04-25T04:20:43.975Z,9.4
2019-04-25T04:23:37.853Z,9.4
2019-04-25T04:26:33.585Z,9.4
2019-04-25T04:29:28.060Z,9.5
2019-04-25T04:32:24.637Z,9.5
2019-04-25T04:35:18.320Z,9.4
2019-04-25T04:38:16.445Z,9.3
2019-04-25T04:41:09.624Z,9.4
2019-04-25T04:44:04.571Z,9.5
2019-04-25T04:46:58.835Z,9.5
2019-04-25T04:49:54.519Z,9.6
2019-04-25T04:52:49.183Z,9.8
2019-04-25T04:55:44.353Z,10
2019-04-25T04:58:39.528Z,10.1
2019-04-25T05:01:34.709Z,10.1
2019-04-25T05:04:29.889Z,10.3
2019-04-25T05:07:25.857Z,10.3
2019-04-25T05:10:20.504Z,10.4
2019-04-25T05:13:17.910Z,10.5
2019-04-25T05:16:11.142Z,10.6
2019-04-25T05:19:05.713Z,10.8
2019-04-25T05:22:00.955Z,11
2019-04-25T05:24:56.263Z,11
2019-04-25T05:28:04.857Z,11.3
2019-04-25T05:30:47.072Z,11.8
2019-04-25T05:33:43.988Z,12.2
2019-04-25T05:36:38.050Z,12.7
2019-04-25T05:39:33.915Z,13.2
2019-04-25T05:42:29.345Z,13.9
2019-04-25T05:45:26.082Z,14.5
2019-04-25T05:48:21.504Z,15.3
2019-04-25T05:51:17.735Z,16
2019-04-25T05:54:14.454Z,16.2
2019-04-25T05:57:08.804Z,16.9
2019-04-25T06:00:04.866Z,17.1
2019-04-25T06:03:00.942Z,17.1
2019-04-25T06:05:57.064Z,17.5
2019-04-25T06:08:54.620Z,18
2019-04-25T06:11:49.466Z,18.7
2019-04-25T06:14:45.721Z,18.9
2019-04-25T06:17:43.884Z,19.4
2019-04-25T06:20:38.268Z,19.5
2019-04-25T06:23:34.600Z,19.8
2019-04-25T06:26:40.105Z,20.1
2019-04-25T06:29:28.089Z,20.4
2019-04-25T06:32:26.860Z,20.4
2019-04-25T06:35:22.964Z,20.9
2019-04-25T06:38:16.393Z,21.3
2019-04-25T06:41:13.929Z,21.8
2019-04-25T06:44:09.313Z,22.2
2019-04-25T06:47:05.807Z,22
2019-04-25T06:50:02.380Z,22.1
2019-04-25T06:52:58.879Z,22.4
2019-04-25T06:55:55.447Z,22.5
2019-04-25T06:58:53.241Z,22.6
2019-04-25T07:01:48.544Z,23
2019-04-25T07:04:46.131Z,23.4
2019-04-25T07:07:41.649Z,23.3
2019-04-25T07:10:38.234Z,23.5
2019-04-25T07:13:38.994Z,23.3
2019-04-25T07:16:33.814Z,23.3
2019-04-25T07:19:28.723Z,23.1
2019-04-25T07:22:26.816Z,23.5
2019-04-25T07:25:20.922Z,24.2
2019-04-25T07:28:28.837Z,24.4
2019-04-25T07:31:14.145Z,24.5
2019-04-25T07:34:10.788Z,24.6
2019-04-25T07:37:07.431Z,25.4
2019-04-25T07:40:04.528Z,25.5
2019-04-25T07:43:00.862Z,25.2
2019-04-25T07:45:57.570Z,25.4
2019-04-25T07:48:54.275Z,24.8
2019-04-25T07:51:50.904Z,24.6
2019-04-25T07:54:47.561Z,24.8
2019-04-25T07:57:44.747Z,25.3
2019-04-25T08:00:40.777Z,25.1
2019-04-25T08:03:37.509Z,25
2019-04-25T08:06:35.749Z,25.1
2019-04-25T08:09:31.872Z,25.3
2019-04-25T08:12:28.691Z,25.5
2019-04-25T08:15:24.197Z,25.4
2019-04-25T08:18:23.349Z,24.9
2019-04-25T08:21:17.395Z,25.1
2019-04-25T08:24:14.375Z,25.1
2019-04-25T08:27:10.489Z,25.2
2019-04-25T08:30:07.034Z,25.4
2019-04-25T08:33:04.396Z,25.5
2019-04-25T08:36:09.367Z,25.6
2019-04-25T08:38:56.696Z,25.7
2019-04-25T08:41:54.420Z,25.5
2019-04-25T08:44:49.702Z,25.2
2019-04-25T08:47:46.144Z,25.2
2019-04-25T08:50:44.593Z,25.4
2019-04-25T08:53:39.288Z,25
2019-04-25T08:56:36.462Z,24.7
2019-04-25T08:59:42.299Z,23.8
2019-04-25T09:02:27.602Z,23.3
2019-04-25T09:05:24.693Z,23.1
2019-04-25T09:08:19.816Z,23
2019-04-25T09:11:15.902Z,22.9
2019-04-25T09:14:13.810Z,23
2019-04-25T09:17:08.102Z,23.2
2019-04-25T09:20:04.434Z,23.1
2019-04-25T09:23:00.196Z,23
2019-04-25T09:25:56.164Z,22.6
2019-04-25T09:28:53.947Z,22.4
2019-04-25T09:31:48.204Z,22.1
2019-04-25T09:34:44.220Z,22.1
2019-04-25T09:37:41.200Z,22.2
2019-04-25T09:40:37.223Z,22.1
2019-04-25T09:43:33.848Z,22
2019-04-25T09:46:28.253Z,22.1
2019-04-25T09:49:24.152Z,22
2019-04-25T09:52:20.216Z,22
2019-04-25T09:55:16.171Z,22
2019-04-25T09:58:13.569Z,21.9
2019-04-25T10:01:08.052Z,22
2019-04-25T10:04:04.028Z,22
2019-04-25T10:06:59.889Z,22.1
2019-04-25T10:09:56.426Z,22
2019-04-25T10:12:51.795Z,21.7
2019-04-25T10:15:48.350Z,21.7
2019-04-25T10:18:45.854Z,21.7
2019-04-25T10:21:40.041Z,21.7
2019-04-25T10:24:35.524Z,21.6
2019-04-25T10:27:31.464Z,21.6
2019-04-25T10:30:27.409Z,21.7
2019-04-25T10:33:24.700Z,21.8
2019-04-25T10:36:19.253Z,21.8
2019-04-25T10:39:15.294Z,21.8
2019-04-25T10:42:11.106Z,21.8
2019-04-25T10:45:20.141Z,21.9
2019-04-25T10:48:04.636Z,21.8
2019-04-25T10:50:59.032Z,22.1
2019-04-25T10:53:55.505Z,22.1
2019-04-25T10:56:50.926Z,22.1
2019-04-25T11:00:07.333Z,22.2
2019-04-25T11:02:46.552Z,22.3
2019-04-25T11:05:38.902Z,22
2019-04-25T11:08:34.931Z,21.8
2019-04-25T11:11:30.957Z,21.7
2019-04-25T11:14:26.935Z,21.7
2019-04-25T11:17:24.701Z,21.6
2019-04-25T11:20:18.903Z,21.8
2019-04-25T11:23:14.893Z,21.7
2019-04-25T11:26:10.877Z,21.7
2019-04-25T11:29:06.953Z,21.8
2019-04-25T11:32:02.931Z,21.8
2019-04-25T11:34:59.624Z,21.9
2019-04-25T11:37:54.950Z,21.9
2019-04-25T11:40:54.929Z,21.8
2019-04-25T11:43:46.812Z,21.8
2019-04-25T11:46:45.764Z,21.9
2019-04-25T11:49:38.800Z,21.9
2019-04-25T11:52:34.810Z,22
2019-04-25T11:55:30.819Z,21.9
2019-04-25T11:58:26.841Z,21.8
2019-04-25T12:01:24.649Z,21.7
2019-04-25T12:04:18.882Z,21.8
2019-04-25T12:07:14.924Z,21.9
2019-04-25T12:10:10.966Z,21.9
2019-04-25T12:13:07.181Z,21.9
2019-04-25T12:16:04.513Z,21.8
2019-04-25T12:18:59.019Z,21.9
2019-04-25T12:21:58.454Z,21.8
2019-04-25T12:24:51.145Z,21.9
2019-04-25T12:27:51.335Z,21.9
2019-04-25T12:30:43.826Z,21.9
2019-04-25T12:33:39.183Z,21.9
2019-04-25T12:36:35.222Z,21.8
2019-04-25T12:39:31.257Z,21.6
2019-04-25T12:42:27.286Z,21.7
2019-04-25T12:45:24.572Z,21.7
2019-04-25T12:48:19.326Z,21.6
2019-04-25T12:51:15.354Z,21.6
2019-04-25T12:54:11.298Z,21.5
2019-04-25T12:57:07.262Z,21.6
2019-04-25T13:00:04.145Z,21.6
2019-04-25T13:02:59.176Z,21.6
2019-04-25T13:05:55.142Z,21.6
2019-04-25T13:08:51.533Z,21.6
2019-04-25T13:11:47.004Z,21.4
2019-04-25T13:14:42.862Z,21.4
2019-04-25T13:17:38.843Z,21.3
2019-04-25T13:20:34.736Z,21.3
2019-04-25T13:23:32.343Z,21.2
2019-04-25T13:26:26.554Z,21.2
2019-04-25T13:29:24.684Z,21.2
2019-04-25T13:32:18.404Z,21.1
2019-04-25T13:35:14.331Z,21.1
2019-04-25T13:38:11.050Z,21.2
2019-04-25T13:41:06.138Z,21.2
2019-04-25T13:44:02.983Z,21.2
2019-04-25T13:46:57.897Z,21.1
2019-04-25T13:49:53.783Z,21.2
2019-04-25T13:52:49.672Z,21.2
2019-04-25T13:55:45.553Z,21.2
2019-04-25T13:58:41.485Z,21.1
2019-04-25T14:01:37.354Z,21.3
2019-04-25T14:04:36.069Z,21.3
2019-04-25T14:07:29.949Z,21.3
2019-04-25T14:10:26.705Z,21.4
2019-04-25T14:13:24.130Z,21.4
2019-04-25T14:16:16.881Z,21.4
2019-04-25T14:19:14.715Z,21.4
2019-04-25T14:22:08.886Z,21.4
2019-04-25T14:25:04.876Z,21.5
2019-04-25T14:28:00.858Z,21.4
2019-04-25T14:30:56.823Z,21.4
2019-04-25T14:33:52.747Z,21.4
2019-04-25T14:36:48.737Z,21.4
2019-04-25T14:39:44.643Z,21.4
2019-04-25T14:42:40.579Z,21.3
2019-04-25T14:45:45.272Z,21.3
2019-04-25T14:48:33.476Z,21.4
2019-04-25T14:51:28.576Z,21.4
2019-04-25T14:54:24.446Z,21.4
2019-04-25T14:57:20.415Z,21.5
2019-04-25T15:00:16.389Z,21.6
2019-04-25T15:03:12.375Z,21.6
2019-04-25T15:06:08.414Z,21.7
2019-04-25T15:09:04.455Z,21.7
2019-04-25T15:12:00.446Z,21.7
2019-04-25T15:14:56.491Z,21.7
2019-04-25T15:17:52.537Z,21.6
2019-04-25T15:20:48.592Z,21.6
2019-04-25T15:23:44.548Z,21.5
2019-04-25T15:26:40.843Z,21.5
2019-04-25T15:29:36.596Z,21.5
2019-04-25T15:32:33.019Z,21.5
2019-04-25T15:35:28.650Z,21.4
2019-04-25T15:38:25.075Z,21.4
2019-04-25T15:41:20.688Z,21.4
2019-04-25T15:44:16.681Z,21.3
2019-04-25T15:47:12.720Z,21.3
2019-04-25T15:50:08.697Z,21.3
2019-04-25T15:53:04.715Z,21.2
2019-04-25T15:56:00.672Z,21.1
2019-04-25T15:58:56.648Z,21.2
2019-04-25T16:01:52.645Z,21.1
2019-04-25T16:04:48.579Z,20.9
2019-04-25T16:07:44.518Z,21
2019-04-25T16:10:40.469Z,20.9
2019-04-25T16:13:37.454Z,20.9
2019-04-25T16:16:33.155Z,20.9
2019-04-25T16:19:29.452Z,20.8
2019-04-25T16:22:24.155Z,20.7
2019-04-25T16:25:20.071Z,20.7
2019-04-25T16:28:16.038Z,20.7
2019-04-25T16:31:12.004Z,20.7
2019-04-25T16:34:07.933Z,20.7
2019-04-25T16:37:03.881Z,20.6
2019-04-25T16:39:59.839Z,20.6
2019-04-25T16:42:55.774Z,20.5
2019-04-25T16:45:51.705Z,20.5
2019-04-25T16:48:47.660Z,20.4
2019-04-25T16:51:43.576Z,20.4
2019-04-25T16:54:39.512Z,20.4
2019-04-25T16:57:35.393Z,20.3
2019-04-25T17:00:32.413Z,20.2
2019-04-25T17:03:27.186Z,20.2
2019-04-25T17:06:23.091Z,20.1
2019-04-25T17:09:19.009Z,20.1
2019-04-25T17:12:14.896Z,20.1
2019-04-25T17:15:10.692Z,19.9
2019-04-25T17:18:06.653Z,19.8
2019-04-25T17:21:02.473Z,19.8
2019-04-25T17:23:58.367Z,19.8
2019-04-25T17:26:54.225Z,19.7
2019-04-25T17:29:50.099Z,19.7
2019-04-25T17:32:54.100Z,19.6
2019-04-25T17:35:41.789Z,19.6
2019-04-25T17:38:38.023Z,19.5
2019-04-25T17:41:34.671Z,19.4
2019-04-25T17:44:29.322Z,19.3
2019-04-25T17:47:25.122Z,19.3
2019-04-25T17:50:20.931Z,19.3
2019-04-25T17:53:16.705Z,19.1
2019-04-25T17:56:12.430Z,19.1
2019-04-25T17:59:08.171Z,19
2019-04-25T18:02:03.907Z,19
2019-04-25T18:04:59.646Z,18.9
2019-04-25T18:07:55.441Z,18.9
2019-04-25T18:10:51.149Z,18.9
2019-04-25T18:13:46.869Z,18.8
2019-04-25T18:16:42.739Z,18.8
2019-04-25T18:19:38.995Z,18.8
2019-04-25T18:22:35.691Z,18.7
2019-04-25T18:25:29.774Z,18.6
2019-04-25T18:28:25.383Z,18.6
2019-04-25T18:31:21.051Z,18.6
2019-04-25T18:34:16.704Z,18.5
2019-04-25T18:37:12.399Z,18.5
2019-04-25T18:40:08.091Z,18.4
2019-04-25T18:43:03.744Z,18.4
2019-04-25T18:45:59.408Z,18.3
2019-04-25T18:48:55.046Z,18.3
2019-04-25T18:51:58.328Z,18.2
2019-04-25T18:54:47.314Z,18.1
2019-04-25T18:57:44.414Z,18.2
2019-04-25T19:00:39.107Z,18.2
2019-04-25T19:03:33.377Z,18.2
2019-04-25T19:06:29.055Z,18.1
2019-04-25T19:09:24.731Z,18
2019-04-25T19:12:20.405Z,17.9
2019-04-25T19:15:16.096Z,18
2019-04-25T19:18:11.725Z,17.9
2019-04-25T19:21:07.372Z,17.8
2019-04-25T19:24:03.004Z,17.8
2019-04-25T19:26:58.650Z,17.8
2019-04-25T19:29:54.266Z,17.7
2019-04-25T19:32:49.912Z,17.6
2019-04-25T19:35:46.116Z,17.6
2019-04-25T19:38:42.322Z,17.5
2019-04-25T19:41:36.793Z,17.5
2019-04-25T19:44:32.374Z,17.4
2019-04-25T19:47:27.979Z,17.3
2019-04-25T19:50:23.542Z,17.2
2019-04-25T19:53:19.146Z,17.2
2019-04-25T19:56:14.723Z,17.2
2019-04-25T19:59:10.290Z,17.1
2019-04-25T20:02:05.873Z,17.1
2019-04-25T20:05:01.467Z,17.2
2019-04-25T20:07:59.972Z,17.1
2019-04-25T20:10:53.510Z,17.1
2019-04-25T20:13:49.134Z,17.1
2019-04-25T20:16:46.031Z,17.1
2019-04-25T20:19:42.051Z,17
2019-04-25T20:22:34.848Z,17
2019-04-25T20:25:30.429Z,16.9
2019-04-25T20:28:26.018Z,16.9
2019-04-25T20:31:21.632Z,16.8
2019-04-25T20:34:17.200Z,16.7
2019-04-25T20:37:12.847Z,16.6
2019-04-25T20:40:08.421Z,16.6
2019-04-25T20:43:03.970Z,16.6
2019-04-25T20:45:59.514Z,16.5
2019-04-25T20:48:55.075Z,16.5
2019-04-25T20:51:51.027Z,16.5
2019-04-25T20:54:48.814Z,16.5
2019-04-25T20:57:41.781Z,16.5
2019-04-25T21:00:40.576Z,16.4
2019-04-25T21:03:32.914Z,16.5
2019-04-25T21:06:28.460Z,16.5
2019-04-25T21:09:24.005Z,16.4
2019-04-25T21:12:19.635Z,16.4
2019-04-25T21:15:15.093Z,16.3
2019-04-25T21:18:10.648Z,16.3
2019-04-25T21:21:06.219Z,16.4
2019-04-25T21:24:01.691Z,16.4
2019-04-25T21:26:57.388Z,16.4
2019-04-25T21:29:53.762Z,16.3
2019-04-25T21:32:48.523Z,16.3
2019-04-25T21:35:44.311Z,16.3
2019-04-25T21:38:39.551Z,16.2
2019-04-25T21:41:35.313Z,16.2
2019-04-25T21:44:30.660Z,16.2
2019-04-25T21:47:26.382Z,16.2
2019-04-25T21:50:22.044Z,16.1
2019-04-25T21:53:17.533Z,16.1
2019-04-25T21:56:12.883Z,16.1
2019-04-25T21:59:08.446Z,15.9
2019-04-25T22:02:05.235Z,15.8
2019-04-25T22:05:00.543Z,15.7
2019-04-25T22:07:56.539Z,15.7
2019-04-25T22:10:50.698Z,15.6
2019-04-25T22:13:46.513Z,15.5
2019-04-25T22:16:42.089Z,15.6
2019-04-25T22:19:37.644Z,15.5
2019-04-25T22:22:33.138Z,15.5
2019-04-25T22:25:28.788Z,15.5
2019-04-25T22:28:24.307Z,15.5
2019-04-25T22:31:19.650Z,15.6
2019-04-25T22:34:15.416Z,15.6
2019-04-25T22:37:10.959Z,15.5
2019-04-25T22:40:06.191Z,15.5
2019-04-25T22:43:01.795Z,15.6
2019-04-25T22:45:57.424Z,15.6
2019-04-25T22:48:52.915Z,15.5
2019-04-25T22:51:48.620Z,15.5
2019-04-25T22:54:43.847Z,15.4
2019-04-25T22:57:39.449Z,15.5
2019-04-25T23:00:35.281Z,15.5
2019-04-25T23:03:30.590Z,15.4
2019-04-25T23:06:26.128Z,15.4
2019-04-25T23:09:21.894Z,15.3
2019-04-25T23:12:17.080Z,15.3
2019-04-25T23:15:13.014Z,15.2
2019-04-25T23:18:09.258Z,15
2019-04-25T23:21:05.491Z,14.8
2019-04-25T23:23:59.118Z,14.8
2019-04-25T23:26:54.551Z,14.7
2019-04-25T23:29:50.542Z,14.7
2019-04-25T23:32:45.622Z,14.6
2019-04-25T23:35:41.207Z,14.6
2019-04-25T23:38:36.921Z,14.6
2019-04-25T23:41:32.106Z,14.5
2019-04-25T23:44:27.866Z,14.5
2019-04-25T23:47:23.060Z,14.6
2019-04-25T23:50:18.530Z,14.7
2019-04-25T23:53:14.980Z,14.7
2019-04-25T23:56:09.761Z,14.6
2019-04-25T23:59:04.888Z,14.6
